Time;durP1;ratioP1;P1;durP2;ratioP2;P2;SDS_P1;SDS_P2;PMS_P1;PMS_P2;Temp;Humidity;BMP_temperature;BMP_pressure;BME280_temperature;BME280_humidity;BME280_pressure;Samples;Min_cycle;Max_cycle;Signal;HPM_P1;HPM_P2
2024/04/22 00:09:50;;;;;;;8.7;4.7;;;;;;;4.75;83.83;98801.666666667;;;;
2024/04/22 00:20:50;;;;;;;7;4.1;;;;;;;4.65;83.77;98803.333333333;;;;
2024/04/22 00:30:50;;;;;;;7;4.1;;;;;;;4.51;83.92;98795;;;;
2024/04/22 00:41:50;;;;;;;7.3;3.2;;;;;;;4.57;83.69;98790;;;;
2024/04/22 00:51:50;;;;;;;7.3;3.2;;;;;;;4.44;83.88;98791.666666667;;;;
2024/04/22 01:01:50;;;;;;;7.3;3.2;;;;;;;4.41;84.15;98780;;;;
2024/04/22 01:11:50;;;;;;;6.7;2.9;;;;;;;4.26;83.93;98780;;;;
2024/04/22 01:22:50;;;;;;;6.7;2.9;;;;;;;4.27;84.17;98773.333333333;;;;
2024/04/22 01:33:50;;;;;;;6.7;2.9;;;;;;;4.4;83.94;98770;;;;
2024/04/22 01:43:50;;;;;;;6.4;2.7;;;;;;;4.47;83.72;98778.333333333;;;;
2024/04/22 01:53:50;;;;;;;6.4;2.7;;;;;;;4.48;83.47;98783.333333333;;;;
2024/04/22 02:03:50;;;;;;;6.4;2.7;;;;;;;4.35;83.08;98790;;;;
2024/04/22 02:14:50;;;;;;;6.8;3.7;;;;;;;4.24;83.59;98788.333333333;;;;
2024/04/22 02:25:50;;;;;;;6.8;3.7;;;;;;;4.38;83.11;98793.333333333;;;;
2024/04/22 02:36:50;;;;;;;6.8;3.7;;;;;;;4.33;81.88;98790;;;;
2024/04/22 02:47:50;;;;;;;5;2.4;;;;;;;4.33;82.16;98793.333333333;;;;
2024/04/22 02:57:50;;;;;;;5;2.4;;;;;;;4.3;82.35;98798.333333333;;;;
2024/04/22 03:07:50;;;;;;;5;2.4;;;;;;;4.1;83.58;98800;;;;
2024/04/22 03:17:50;;;;;;;7.3;3.5;;;;;;;4.2;83.64;98793.333333333;;;;
2024/04/22 03:28:50;;;;;;;7.3;3.5;;;;;;;3.79;83.14;98795;;;;
2024/04/22 03:38:50;;;;;;;7.3;3.5;;;;;;;3.72;84.16;98806.666666667;;;;
2024/04/22 03:49:50;;;;;;;8;3.6;;;;;;;3.55;84.01;98816.666666667;;;;
2024/04/22 04:00:50;;;;;;;8;3.6;;;;;;;3.18;84.53;98830;;;;
2024/04/22 04:10:55;;;;;;;7.3;3.8;;;;;;;3.06;85.09;98838.333333333;;;;
2024/04/22 04:21:50;;;;;;;7.3;3.8;;;;;;;3.06;84.82;98845;;;;
2024/04/22 04:31:50;;;;;;;7.3;3.8;;;;;;;2.96;85.41;98853.333333333;;;;
2024/04/22 04:42:50;;;;;;;4.8;2.8;;;;;;;3.08;85.5;98860;;;;
2024/04/22 04:52:50;;;;;;;4.8;2.8;;;;;;;3.21;85.19;98870;;;;
2024/04/22 05:02:50;;;;;;;4.8;2.8;;;;;;;3.05;86.15;98878.333333333;;;;
2024/04/22 05:12:50;;;;;;;6.6;3.9;;;;;;;3.06;86.63;98886.666666667;;;;
2024/04/22 05:22:50;;;;;;;6.6;3.9;;;;;;;3.26;85.95;98893.333333333;;;;
2024/04/22 05:32:50;;;;;;;6.6;3.9;;;;;;;3.13;86.29;98905;;;;
2024/04/22 05:43:50;;;;;;;7.9;4.3;;;;;;;3.22;85.7;98910;;;;
2024/04/22 05:54:50;;;;;;;7.9;4.3;;;;;;;3.33;85.74;98918.333333333;;;;
2024/04/22 06:04:50;;;;;;;7.9;4.3;;;;;;;3.98;85.35;98930;;;;
2024/04/22 06:15:50;;;;;;;9.7;5.4;;;;;;;4;83.42;98938.333333333;;;;
2024/04/22 06:26:50;;;;;;;9.7;5.4;;;;;;;4.14;82.95;98943.333333333;;;;
2024/04/22 06:37:50;;;;;;;9.7;5.4;;;;;;;4.59;81.73;98951.666666667;;;;
2024/04/22 06:47:50;;;;;;;7.7;5.1;;;;;;;4.8;80.04;98963.333333333;;;;
2024/04/22 06:57:50;;;;;;;7.7;5.1;;;;;;;5.28;79.73;98966.666666667;;;;
2024/04/22 07:08:50;;;;;;;7.7;5.1;;;;;;;5.14;80.33;98971.666666667;;;;
2024/04/22 07:18:50;;;;;;;8.1;4.7;;;;;;;4.97;80.42;98990;;;;
2024/04/22 07:29:50;;;;;;;8.1;4.7;;;;;;;4.92;80.19;99001.666666667;;;;
2024/04/22 07:40:50;;;;;;;9.6;5;;;;;;;4.92;78.32;99005;;;;
2024/04/22 07:50:50;;;;;;;9.6;5;;;;;;;5.15;77.91;99013.333333333;;;;
2024/04/22 08:01:50;;;;;;;9.6;5;;;;;;;5.35;76.51;99013.333333333;;;;
2024/04/22 08:11:50;;;;;;;13.7;6.5;;;;;;;5.84;74.5;99021.666666667;;;;
2024/04/22 08:21:50;;;;;;;13.7;6.5;;;;;;;6.31;71.35;99021.666666667;;;;
2024/04/22 08:32:50;;;;;;;13.7;6.5;;;;;;;6.32;71.9;99023.333333333;;;;
2024/04/22 08:43:50;;;;;;;11.8;6.9;;;;;;;7.16;72.56;99031.666666667;;;;
2024/04/22 08:54:50;;;;;;;11.8;6.9;;;;;;;7.22;65.78;99023.333333333;;;;
2024/04/22 09:04:50;;;;;;;11.8;6.9;;;;;;;6.33;71.69;99040;;;;
2024/04/22 09:14:50;;;;;;;12.1;7.3;;;;;;;6.72;72.08;99040;;;;
2024/04/22 09:24:51;;;;;;;12.1;7.3;;;;;;;6.81;67.26;99040;;;;
2024/04/22 09:35:50;;;;;;;12.1;7.3;;;;;;;6.91;68.15;99051.666666667;;;;
2024/04/22 09:45:50;;;;;;;11.5;6;;;;;;;7.18;66.35;99043.333333333;;;;
2024/04/22 09:55:50;;;;;;;11.5;6;;;;;;;7.69;63.1;99045;;;;
2024/04/22 10:06:50;;;;;;;11.5;6;;;;;;;7.4;63.66;99046.666666667;;;;
2024/04/22 10:16:50;;;;;;;7.8;4.3;;;;;;;7.66;59.06;99051.666666667;;;;
2024/04/22 10:27:50;;;;;;;7.8;4.3;;;;;;;7.77;58.24;99055;;;;
2024/04/22 10:38:50;;;;;;;7.8;4.3;;;;;;;7.64;60.96;99046.666666667;;;;
2024/04/22 10:48:50;;;;;;;9;4.7;;;;;;;7.07;62.16;99040;;;;
2024/04/22 10:58:50;;;;;;;9;4.7;;;;;;;7.65;60.84;99045;;;;
2024/04/22 11:08:50;;;;;;;9;4.7;;;;;;;8.26;58.45;99043.333333333;;;;
2024/04/22 11:19:50;;;;;;;6.4;3.2;;;;;;;8.08;57.29;99046.666666667;;;;
2024/04/22 11:29:50;;;;;;;6.4;3.2;;;;;;;8.72;56.98;99043.333333333;;;;
2024/04/22 11:40:50;;;;;;;6.1;3.6;;;;;;;8.76;56.49;99038.333333333;;;;
2024/04/22 11:51:50;;;;;;;6.1;3.6;;;;;;;9.23;54.75;99040;;;;
2024/04/22 12:02:50;;;;;;;6.1;3.6;;;;;;;9.64;54.8;99038.333333333;;;;
2024/04/22 12:13:50;;;;;;;5.3;3.1;;;;;;;10.12;50.45;99031.666666667;;;;
2024/04/22 12:24:50;;;;;;;5.3;3.1;;;;;;;9.58;50.14;99030;;;;
2024/04/22 12:34:50;;;;;;;5.3;3.1;;;;;;;9.61;54.22;99028.333333333;;;;
2024/04/22 12:44:50;;;;;;;5.9;3.3;;;;;;;9.13;53.76;99028.333333333;;;;
2024/04/22 12:54:50;;;;;;;5.9;3.3;;;;;;;8.78;53.69;99030;;;;
2024/04/22 13:05:50;;;;;;;5.9;3.3;;;;;;;8.65;54.78;99035;;;;
2024/04/22 13:16:50;;;;;;;6.9;3.2;;;;;;;8.8;53.6;99046.666666667;;;;
2024/04/22 13:26:50;;;;;;;6.9;3.2;;;;;;;9.33;51.59;99045;;;;
2024/04/22 13:37:50;;;;;;;6.9;3.2;;;;;;;8.68;53.62;99063.333333333;;;;
2024/04/22 13:48:50;;;;;;;6.2;3;;;;;;;8.29;54.59;99076.666666667;;;;
2024/04/22 13:58:50;;;;;;;6.2;3;;;;;;;8.32;54.96;99080;;;;
2024/04/22 14:09:50;;;;;;;9.1;3.8;;;;;;;9.12;55.97;99068.333333333;;;;
2024/04/22 14:19:50;;;;;;;9.1;3.8;;;;;;;9.17;53.34;99075;;;;
2024/04/22 14:29:50;;;;;;;9.1;3.8;;;;;;;9.08;53.97;99093.333333333;;;;
2024/04/22 14:40:50;;;;;;;9.4;4.1;;;;;;;8.28;54.32;99105;;;;
2024/04/22 14:50:50;;;;;;;9.4;4.1;;;;;;;8.26;55.73;99108.333333333;;;;
2024/04/22 15:01:51;;;;;;;9.4;4.1;;;;;;;7.78;55.64;99113.333333333;;;;
2024/04/22 15:11:50;;;;;;;7;4;;;;;;;7.57;55.76;99113.333333333;;;;
2024/04/22 15:21:50;;;;;;;7;4;;;;;;;7.39;56.42;99116.666666667;;;;
2024/04/22 15:32:50;;;;;;;7;4;;;;;;;7.25;57.83;99105;;;;
2024/04/22 15:42:52;;;;;;;7.1;3.8;;;;;;;7.17;57.12;99110;;;;
2024/04/22 15:53:50;;;;;;;7.1;3.8;;;;;;;7.08;58.21;99120;;;;
2024/04/22 16:04:50;;;;;;;7.1;3.8;;;;;;;6.92;58.43;99123.333333333;;;;
2024/04/22 16:15:50;;;;;;;6.1;4;;;;;;;6.72;58.66;99133.333333333;;;;
2024/04/22 16:25:50;;;;;;;6.1;4;;;;;;;6.58;58.96;99133.333333333;;;;
2024/04/22 16:36:50;;;;;;;6.1;4;;;;;;;6.41;58.88;99133.333333333;;;;
2024/04/22 16:47:50;;;;;;;8;4.5;;;;;;;6.32;59.21;99131.666666667;;;;
2024/04/22 16:58:50;;;;;;;8;4.5;;;;;;;6.16;59.89;99133.333333333;;;;
2024/04/22 17:08:50;;;;;;;8;4.5;;;;;;;6.06;61.13;99136.666666667;;;;
2024/04/22 17:19:50;;;;;;;7.6;4;;;;;;;6.13;62.95;99141.666666667;;;;
2024/04/22 17:30:50;;;;;;;7.6;4;;;;;;;5.98;64.8;99153.333333333;;;;
2024/04/22 17:41:50;;;;;;;8.5;5;;;;;;;5.83;67.56;99160;;;;
2024/04/22 17:51:50;;;;;;;8.5;5;;;;;;;5.69;67.46;99166.666666667;;;;
2024/04/22 18:02:50;;;;;;;8.5;5;;;;;;;5.51;67.99;99176.666666667;;;;
2024/04/22 18:13:50;;;;;;;9;4.4;;;;;;;5.33;69.27;99181.666666667;;;;
2024/04/22 18:23:52;;;;;;;9;4.4;;;;;;;5.48;69.47;99203.333333333;;;;
2024/04/22 18:34:50;;;;;;;9;4.4;;;;;;;5.5;69.42;99203.333333333;;;;
2024/04/22 18:45:50;;;;;;;13.5;7.7;;;;;;;5.22;69.77;99206.666666667;;;;
2024/04/22 18:55:50;;;;;;;13.5;7.7;;;;;;;5.07;69.31;99228.333333333;;;;
2024/04/22 19:06:50;;;;;;;13.5;7.7;;;;;;;4.74;70.64;99233.333333333;;;;
2024/04/22 19:16:50;;;;;;;15.5;9.2;;;;;;;4.61;70.43;99228.333333333;;;;
2024/04/22 19:26:50;;;;;;;15.5;9.2;;;;;;;4.48;69.85;99238.333333333;;;;
2024/04/22 19:36:50;;;;;;;15.5;9.2;;;;;;;4.4;69.54;99251.666666667;;;;
2024/04/22 19:46:50;;;;;;;8.6;5.9;;;;;;;4.12;68.99;99251.666666667;;;;
2024/04/22 19:57:52;;;;;;;8.6;5.9;;;;;;;4.01;69.15;99251.666666667;;;;
2024/04/22 20:08:50;;;;;;;8.6;5.9;;;;;;;4.08;70.01;99248.333333333;;;;
2024/04/22 20:19:50;;;;;;;8.8;4.1;;;;;;;4.04;70.57;99243.333333333;;;;
2024/04/22 20:30:50;;;;;;;8.8;4.1;;;;;;;3.89;71.29;99230;;;;
2024/04/22 20:41:50;;;;;;;10.3;6.3;;;;;;;3.88;70.59;99230;;;;
2024/04/22 20:51:50;;;;;;;10.3;6.3;;;;;;;3.66;71.56;99238.333333333;;;;
2024/04/22 21:02:50;;;;;;;10.3;6.3;;;;;;;3.6;71.89;99251.666666667;;;;
2024/04/22 21:13:50;;;;;;;8.9;4.9;;;;;;;3.62;71.98;99283.333333333;;;;
2024/04/22 21:23:50;;;;;;;8.9;4.9;;;;;;;3.67;72.08;99263.333333333;;;;
2024/04/22 21:34:50;;;;;;;8.9;4.9;;;;;;;3.62;72.31;99253.333333333;;;;
2024/04/22 21:44:50;;;;;;;9.4;4.9;;;;;;;3.49;72.86;99253.333333333;;;;
2024/04/22 21:55:51;;;;;;;9.4;4.9;;;;;;;3.57;72.83;99250;;;;
2024/04/22 22:05:50;;;;;;;9.4;4.9;;;;;;;3.45;74.09;99243.333333333;;;;
2024/04/22 22:15:50;;;;;;;10.9;5.5;;;;;;;3.27;74.69;99255;;;;
2024/04/22 22:26:50;;;;;;;10.9;5.5;;;;;;;3.26;74.79;99253.333333333;;;;
2024/04/22 22:36:50;;;;;;;10.9;5.5;;;;;;;3.12;75.42;99261.666666667;;;;
2024/04/22 22:47:50;;;;;;;12.4;6.1;;;;;;;3.28;74.87;99270;;;;
2024/04/22 22:57:50;;;;;;;12.4;6.1;;;;;;;3.48;73.68;99275;;;;
2024/04/22 23:08:50;;;;;;;9.1;4.7;;;;;;;3.53;73.71;99266.666666667;;;;
2024/04/22 23:18:50;;;;;;;9.1;4.7;;;;;;;3.45;75.08;99265;;;;
2024/04/22 23:28:50;;;;;;;9.1;4.7;;;;;;;3.42;75.86;99255;;;;
2024/04/22 23:38:50;;;;;;;12.9;6.5;;;;;;;3.52;75.16;99238.333333333;;;;
2024/04/22 23:49:50;;;;;;;12.9;6.5;;;;;;;3.53;76.67;99238.333333333;;;;
2024/04/22 23:59:50;;;;;;;12.9;6.5;;;;;;;3.47;76.08;99228.333333333;;;;
